sensor_id;sensor_type;location;lat;lon;timestamp;P1;durP1;ratioP1;P2;durP2;ratioP2
13897;SDS011;7019;50.766;4.474;2022-12-01T00:00:40;48.60;;;28.33;;
13897;SDS011;7019;50.766;4.474;2022-12-01T00:03:07;43.63;;;27.20;;
13897;SDS011;7019;50.766;4.474;2022-12-01T00:05:34;38.97;;;26.00;;
13897;SDS011;7019;50.766;4.474;2022-12-01T00:08:02;46.67;;;27.37;;
13897;SDS011;7019;50.766;4.474;2022-12-01T00:10:31;38.77;;;26.00;;
13897;SDS011;7019;50.766;4.474;2022-12-01T00:12:58;36.53;;;24.63;;
13897;SDS011;7019;50.766;4.474;2022-12-01T00:15:26;37.33;;;25.10;;
13897;SDS011;7019;50.766;4.474;2022-12-01T00:17:54;39.93;;;26.47;;
13897;SDS011;7019;50.766;4.474;2022-12-01T00:20:23;37.90;;;25.10;;
13897;SDS011;7019;50.766;4.474;2022-12-01T00:22:50;38.07;;;24.37;;
13897;SDS011;7019;50.766;4.474;2022-12-01T00:25:17;38.87;;;25.67;;
13897;SDS011;7019;50.766;4.474;2022-12-01T00:27:47;35.23;;;24.60;;
13897;SDS011;7019;50.766;4.474;2022-12-01T00:30:16;37.57;;;24.23;;
13897;SDS011;7019;50.766;4.474;2022-12-01T00:32:44;35.43;;;23.13;;
13897;SDS011;7019;50.766;4.474;2022-12-01T00:35:12;36.77;;;23.60;;
13897;SDS011;7019;50.766;4.474;2022-12-01T00:37:40;34.13;;;22.90;;
13897;SDS011;7019;50.766;4.474;2022-12-01T00:40:07;35.67;;;23.40;;
13897;SDS011;7019;50.766;4.474;2022-12-01T00:42:35;36.03;;;23.93;;
13897;SDS011;7019;50.766;4.474;2022-12-01T00:45:04;36.03;;;23.60;;
13897;SDS011;7019;50.766;4.474;2022-12-01T00:47:32;36.33;;;24.40;;
13897;SDS011;7019;50.766;4.474;2022-12-01T00:49:59;35.33;;;22.97;;
13897;SDS011;7019;50.766;4.474;2022-12-01T00:52:27;38.33;;;23.27;;
13897;SDS011;7019;50.766;4.474;2022-12-01T00:54:54;35.30;;;24.37;;
13897;SDS011;7019;50.766;4.474;2022-12-01T00:57:21;37.03;;;22.77;;
13897;SDS011;7019;50.766;4.474;2022-12-01T00:59:48;34.93;;;24.07;;
13897;SDS011;7019;50.766;4.474;2022-12-01T01:02:17;35.83;;;24.60;;
13897;SDS011;7019;50.766;4.474;2022-12-01T01:04:44;35.33;;;22.60;;
13897;SDS011;7019;50.766;4.474;2022-12-01T01:07:11;36.73;;;24.20;;
13897;SDS011;7019;50.766;4.474;2022-12-01T01:09:38;37.33;;;23.07;;
13897;SDS011;7019;50.766;4.474;2022-12-01T01:12:05;36.07;;;23.70;;
13897;SDS011;7019;50.766;4.474;2022-12-01T01:14:32;36.73;;;23.53;;
13897;SDS011;7019;50.766;4.474;2022-12-01T01:17:00;37.67;;;23.87;;
13897;SDS011;7019;50.766;4.474;2022-12-01T01:19:28;36.50;;;23.87;;
13897;SDS011;7019;50.766;4.474;2022-12-01T01:21:55;34.03;;;22.70;;
13897;SDS011;7019;50.766;4.474;2022-12-01T01:24:22;35.87;;;22.50;;
13897;SDS011;7019;50.766;4.474;2022-12-01T01:26:49;35.17;;;23.77;;
13897;SDS011;7019;50.766;4.474;2022-12-01T01:29:17;36.17;;;23.80;;
13897;SDS011;7019;50.766;4.474;2022-12-01T01:31:44;34.83;;;22.03;;
13897;SDS011;7019;50.766;4.474;2022-12-01T01:34:11;32.57;;;21.83;;
13897;SDS011;7019;50.766;4.474;2022-12-01T01:36:40;35.80;;;22.80;;
13897;SDS011;7019;50.766;4.474;2022-12-01T01:39:07;38.37;;;23.60;;
13897;SDS011;7019;50.766;4.474;2022-12-01T01:41:34;35.53;;;22.83;;
13897;SDS011;7019;50.766;4.474;2022-12-01T01:44:01;36.73;;;23.73;;
13897;SDS011;7019;50.766;4.474;2022-12-01T01:46:29;36.67;;;23.03;;
13897;SDS011;7019;50.766;4.474;2022-12-01T01:48:59;34.93;;;22.43;;
13897;SDS011;7019;50.766;4.474;2022-12-01T01:51:28;36.90;;;23.77;;
13897;SDS011;7019;50.766;4.474;2022-12-01T01:54:01;38.17;;;23.73;;
13897;SDS011;7019;50.766;4.474;2022-12-01T01:56:31;40.97;;;23.97;;
13897;SDS011;7019;50.766;4.474;2022-12-01T01:59:00;39.07;;;23.80;;
13897;SDS011;7019;50.766;4.474;2022-12-01T02:01:28;38.27;;;23.60;;
13897;SDS011;7019;50.766;4.474;2022-12-01T02:03:56;36.17;;;23.90;;
13897;SDS011;7019;50.766;4.474;2022-12-01T02:06:24;37.67;;;23.93;;
13897;SDS011;7019;50.766;4.474;2022-12-01T02:08:51;36.87;;;24.47;;
13897;SDS011;7019;50.766;4.474;2022-12-01T02:11:32;38.53;;;24.50;;
13897;SDS011;7019;50.766;4.474;2022-12-01T02:14:22;37.67;;;23.60;;
13897;SDS011;7019;50.766;4.474;2022-12-01T02:17:09;39.17;;;24.40;;
13897;SDS011;7019;50.766;4.474;2022-12-01T02:19:52;40.20;;;25.77;;
13897;SDS011;7019;50.766;4.474;2022-12-01T02:22:35;40.57;;;25.13;;
13897;SDS011;7019;50.766;4.474;2022-12-01T02:25:20;37.87;;;23.77;;
13897;SDS011;7019;50.766;4.474;2022-12-01T02:28:02;38.33;;;25.77;;
13897;SDS011;7019;50.766;4.474;2022-12-01T02:30:44;38.13;;;24.00;;
13897;SDS011;7019;50.766;4.474;2022-12-01T02:33:15;43.27;;;25.83;;
13897;SDS011;7019;50.766;4.474;2022-12-01T02:35:47;40.33;;;25.40;;
13897;SDS011;7019;50.766;4.474;2022-12-01T02:38:20;38.73;;;25.10;;
13897;SDS011;7019;50.766;4.474;2022-12-01T02:40:51;37.20;;;24.73;;
13897;SDS011;7019;50.766;4.474;2022-12-01T02:43:25;41.50;;;25.17;;
13897;SDS011;7019;50.766;4.474;2022-12-01T02:45:59;37.90;;;24.67;;
13897;SDS011;7019;50.766;4.474;2022-12-01T02:48:34;37.30;;;25.17;;
13897;SDS011;7019;50.766;4.474;2022-12-01T02:51:05;38.50;;;25.73;;
13897;SDS011;7019;50.766;4.474;2022-12-01T02:53:34;39.73;;;26.30;;
13897;SDS011;7019;50.766;4.474;2022-12-01T02:56:04;39.03;;;24.97;;
13897;SDS011;7019;50.766;4.474;2022-12-01T02:58:32;46.03;;;28.23;;
13897;SDS011;7019;50.766;4.474;2022-12-01T03:01:09;44.27;;;28.83;;
13897;SDS011;7019;50.766;4.474;2022-12-01T03:03:56;47.40;;;28.50;;
13897;SDS011;7019;50.766;4.474;2022-12-01T03:06:30;43.17;;;26.37;;
13897;SDS011;7019;50.766;4.474;2022-12-01T03:09:07;46.33;;;28.27;;
13897;SDS011;7019;50.766;4.474;2022-12-01T03:11:42;45.07;;;27.17;;
13897;SDS011;7019;50.766;4.474;2022-12-01T03:14:16;44.40;;;26.33;;
13897;SDS011;7019;50.766;4.474;2022-12-01T03:16:52;43.77;;;26.97;;
13897;SDS011;7019;50.766;4.474;2022-12-01T03:19:21;44.37;;;26.97;;
13897;SDS011;7019;50.766;4.474;2022-12-01T03:21:57;42.50;;;26.87;;
13897;SDS011;7019;50.766;4.474;2022-12-01T03:24:29;47.20;;;28.87;;
13897;SDS011;7019;50.766;4.474;2022-12-01T03:27:00;45.93;;;28.23;;
13897;SDS011;7019;50.766;4.474;2022-12-01T03:29:29;46.60;;;26.67;;
13897;SDS011;7019;50.766;4.474;2022-12-01T03:32:03;44.43;;;27.67;;
13897;SDS011;7019;50.766;4.474;2022-12-01T03:34:35;42.67;;;25.57;;
13897;SDS011;7019;50.766;4.474;2022-12-01T03:37:08;44.30;;;26.07;;
13897;SDS011;7019;50.766;4.474;2022-12-01T03:39:39;45.10;;;26.30;;
13897;SDS011;7019;50.766;4.474;2022-12-01T03:42:10;50.40;;;28.40;;
13897;SDS011;7019;50.766;4.474;2022-12-01T03:44:42;48.93;;;27.73;;
13897;SDS011;7019;50.766;4.474;2022-12-01T03:47:15;49.00;;;28.13;;
13897;SDS011;7019;50.766;4.474;2022-12-01T03:49:44;54.00;;;27.93;;
13897;SDS011;7019;50.766;4.474;2022-12-01T03:52:18;43.00;;;26.00;;
13897;SDS011;7019;50.766;4.474;2022-12-01T03:54:54;44.23;;;26.07;;
13897;SDS011;7019;50.766;4.474;2022-12-01T03:57:35;45.50;;;26.33;;
13897;SDS011;7019;50.766;4.474;2022-12-01T04:00:06;51.13;;;27.50;;
13897;SDS011;7019;50.766;4.474;2022-12-01T04:02:36;52.13;;;26.63;;
13897;SDS011;7019;50.766;4.474;2022-12-01T04:05:04;48.23;;;27.50;;
13897;SDS011;7019;50.766;4.474;2022-12-01T04:07:33;49.77;;;27.90;;
13897;SDS011;7019;50.766;4.474;2022-12-01T04:10:00;51.73;;;29.13;;
13897;SDS011;7019;50.766;4.474;2022-12-01T04:12:27;51.50;;;27.73;;
13897;SDS011;7019;50.766;4.474;2022-12-01T04:14:53;53.67;;;28.40;;
13897;SDS011;7019;50.766;4.474;2022-12-01T04:17:20;56.17;;;29.17;;
13897;SDS011;7019;50.766;4.474;2022-12-01T04:19:49;57.43;;;29.53;;
13897;SDS011;7019;50.766;4.474;2022-12-01T04:22:16;57.27;;;28.87;;
13897;SDS011;7019;50.766;4.474;2022-12-01T04:24:43;53.27;;;27.30;;
13897;SDS011;7019;50.766;4.474;2022-12-01T04:27:10;57.70;;;29.17;;
13897;SDS011;7019;50.766;4.474;2022-12-01T04:29:37;57.23;;;30.13;;
13897;SDS011;7019;50.766;4.474;2022-12-01T04:32:04;58.00;;;28.40;;
13897;SDS011;7019;50.766;4.474;2022-12-01T04:34:32;60.50;;;29.87;;
13897;SDS011;7019;50.766;4.474;2022-12-01T04:37:00;56.03;;;30.43;;
13897;SDS011;7019;50.766;4.474;2022-12-01T04:39:28;63.40;;;29.77;;
13897;SDS011;7019;50.766;4.474;2022-12-01T04:41:55;61.83;;;31.17;;
13897;SDS011;7019;50.766;4.474;2022-12-01T04:44:22;67.87;;;28.80;;
13897;SDS011;7019;50.766;4.474;2022-12-01T04:46:49;61.10;;;30.03;;
13897;SDS011;7019;50.766;4.474;2022-12-01T04:49:16;59.37;;;30.40;;
13897;SDS011;7019;50.766;4.474;2022-12-01T04:51:44;59.43;;;29.63;;
13897;SDS011;7019;50.766;4.474;2022-12-01T04:54:13;67.43;;;31.70;;
13897;SDS011;7019;50.766;4.474;2022-12-01T04:56:40;62.67;;;30.27;;
13897;SDS011;7019;50.766;4.474;2022-12-01T04:59:07;67.37;;;31.97;;
13897;SDS011;7019;50.766;4.474;2022-12-01T05:01:34;62.50;;;34.00;;
13897;SDS011;7019;50.766;4.474;2022-12-01T05:04:02;64.20;;;32.20;;
13897;SDS011;7019;50.766;4.474;2022-12-01T05:06:29;70.60;;;32.57;;
13897;SDS011;7019;50.766;4.474;2022-12-01T05:08:57;64.63;;;30.37;;
13897;SDS011;7019;50.766;4.474;2022-12-01T05:11:27;67.27;;;33.07;;
13897;SDS011;7019;50.766;4.474;2022-12-01T05:13:55;70.77;;;33.60;;
13897;SDS011;7019;50.766;4.474;2022-12-01T05:16:23;66.83;;;34.00;;
13897;SDS011;7019;50.766;4.474;2022-12-01T05:18:52;73.37;;;34.07;;
13897;SDS011;7019;50.766;4.474;2022-12-01T05:21:40;68.13;;;32.70;;
13897;SDS011;7019;50.766;4.474;2022-12-01T05:24:07;67.10;;;33.37;;
13897;SDS011;7019;50.766;4.474;2022-12-01T05:26:37;69.20;;;33.40;;
13897;SDS011;7019;50.766;4.474;2022-12-01T05:29:04;66.57;;;32.73;;
13897;SDS011;7019;50.766;4.474;2022-12-01T05:31:31;69.87;;;33.27;;
13897;SDS011;7019;50.766;4.474;2022-12-01T05:33:59;68.13;;;33.73;;
13897;SDS011;7019;50.766;4.474;2022-12-01T05:36:26;69.60;;;33.90;;
13897;SDS011;7019;50.766;4.474;2022-12-01T05:38:53;66.87;;;35.37;;
13897;SDS011;7019;50.766;4.474;2022-12-01T05:41:20;70.50;;;34.63;;
13897;SDS011;7019;50.766;4.474;2022-12-01T05:43:49;70.40;;;35.40;;
13897;SDS011;7019;50.766;4.474;2022-12-01T05:46:16;72.73;;;34.20;;
13897;SDS011;7019;50.766;4.474;2022-12-01T05:48:43;71.63;;;34.53;;
13897;SDS011;7019;50.766;4.474;2022-12-01T05:51:11;80.40;;;35.87;;
13897;SDS011;7019;50.766;4.474;2022-12-01T05:53:40;77.33;;;35.73;;
13897;SDS011;7019;50.766;4.474;2022-12-01T05:56:07;87.47;;;36.03;;
13897;SDS011;7019;50.766;4.474;2022-12-01T05:58:35;74.00;;;32.83;;
13897;SDS011;7019;50.766;4.474;2022-12-01T06:01:03;75.00;;;34.93;;
13897;SDS011;7019;50.766;4.474;2022-12-01T06:03:31;80.80;;;35.03;;
13897;SDS011;7019;50.766;4.474;2022-12-01T06:05:58;92.53;;;37.53;;
13897;SDS011;7019;50.766;4.474;2022-12-01T06:08:25;72.63;;;34.43;;
13897;SDS011;7019;50.766;4.474;2022-12-01T06:10:52;84.73;;;36.90;;
13897;SDS011;7019;50.766;4.474;2022-12-01T06:13:19;88.23;;;36.53;;
13897;SDS011;7019;50.766;4.474;2022-12-01T06:15:54;77.27;;;35.47;;
13897;SDS011;7019;50.766;4.474;2022-12-01T06:18:24;81.57;;;36.47;;
13897;SDS011;7019;50.766;4.474;2022-12-01T06:20:52;74.73;;;33.93;;
13897;SDS011;7019;50.766;4.474;2022-12-01T06:23:19;76.87;;;34.17;;
13897;SDS011;7019;50.766;4.474;2022-12-01T06:25:46;70.43;;;33.80;;
13897;SDS011;7019;50.766;4.474;2022-12-01T06:28:13;80.40;;;32.93;;
13897;SDS011;7019;50.766;4.474;2022-12-01T06:30:42;72.40;;;32.67;;
13897;SDS011;7019;50.766;4.474;2022-12-01T06:33:11;85.73;;;33.07;;
13897;SDS011;7019;50.766;4.474;2022-12-01T06:35:40;70.97;;;32.73;;
13897;SDS011;7019;50.766;4.474;2022-12-01T06:38:07;78.67;;;33.33;;
13897;SDS011;7019;50.766;4.474;2022-12-01T06:40:34;78.57;;;34.07;;
13897;SDS011;7019;50.766;4.474;2022-12-01T06:43:01;73.93;;;33.53;;
13897;SDS011;7019;50.766;4.474;2022-12-01T06:45:29;69.10;;;32.27;;
13897;SDS011;7019;50.766;4.474;2022-12-01T06:47:56;81.93;;;32.80;;
13897;SDS011;7019;50.766;4.474;2022-12-01T06:50:23;85.27;;;33.83;;
13897;SDS011;7019;50.766;4.474;2022-12-01T06:52:52;75.70;;;32.07;;
13897;SDS011;7019;50.766;4.474;2022-12-01T06:55:20;70.93;;;33.57;;
13897;SDS011;7019;50.766;4.474;2022-12-01T06:57:47;71.50;;;33.40;;
13897;SDS011;7019;50.766;4.474;2022-12-01T07:00:15;75.47;;;34.40;;
13897;SDS011;7019;50.766;4.474;2022-12-01T07:02:42;67.20;;;32.20;;
13897;SDS011;7019;50.766;4.474;2022-12-01T07:05:10;74.87;;;34.30;;
13897;SDS011;7019;50.766;4.474;2022-12-01T07:07:37;77.17;;;32.80;;
13897;SDS011;7019;50.766;4.474;2022-12-01T07:10:07;65.03;;;31.93;;
13897;SDS011;7019;50.766;4.474;2022-12-01T07:12:36;66.83;;;31.10;;
13897;SDS011;7019;50.766;4.474;2022-12-01T07:15:03;70.10;;;31.43;;
13897;SDS011;7019;50.766;4.474;2022-12-01T07:17:32;68.77;;;32.57;;
13897;SDS011;7019;50.766;4.474;2022-12-01T07:19:59;62.10;;;30.70;;
13897;SDS011;7019;50.766;4.474;2022-12-01T07:22:28;70.53;;;31.20;;
13897;SDS011;7019;50.766;4.474;2022-12-01T07:24:58;63.73;;;30.73;;
13897;SDS011;7019;50.766;4.474;2022-12-01T07:27:29;58.93;;;29.60;;
13897;SDS011;7019;50.766;4.474;2022-12-01T07:30:02;60.50;;;29.63;;
13897;SDS011;7019;50.766;4.474;2022-12-01T07:32:36;55.83;;;28.33;;
13897;SDS011;7019;50.766;4.474;2022-12-01T07:35:05;60.27;;;28.97;;
13897;SDS011;7019;50.766;4.474;2022-12-01T07:37:34;56.40;;;29.67;;
13897;SDS011;7019;50.766;4.474;2022-12-01T07:40:01;55.33;;;29.50;;
13897;SDS011;7019;50.766;4.474;2022-12-01T07:42:31;59.33;;;30.70;;
13897;SDS011;7019;50.766;4.474;2022-12-01T07:44:59;60.23;;;29.97;;
13897;SDS011;7019;50.766;4.474;2022-12-01T07:47:26;57.20;;;29.27;;
13897;SDS011;7019;50.766;4.474;2022-12-01T07:49:54;58.17;;;28.83;;
13897;SDS011;7019;50.766;4.474;2022-12-01T07:52:25;59.90;;;29.33;;
13897;SDS011;7019;50.766;4.474;2022-12-01T07:54:52;59.67;;;29.50;;
13897;SDS011;7019;50.766;4.474;2022-12-01T07:57:19;58.57;;;27.30;;
13897;SDS011;7019;50.766;4.474;2022-12-01T07:59:49;59.50;;;28.23;;
13897;SDS011;7019;50.766;4.474;2022-12-01T08:02:17;57.43;;;30.60;;
13897;SDS011;7019;50.766;4.474;2022-12-01T08:04:44;58.63;;;28.97;;
13897;SDS011;7019;50.766;4.474;2022-12-01T08:07:11;57.67;;;28.27;;
13897;SDS011;7019;50.766;4.474;2022-12-01T08:09:38;57.43;;;28.83;;
13897;SDS011;7019;50.766;4.474;2022-12-01T08:12:05;56.23;;;28.47;;
13897;SDS011;7019;50.766;4.474;2022-12-01T08:14:33;57.50;;;29.93;;
13897;SDS011;7019;50.766;4.474;2022-12-01T08:17:02;60.87;;;29.33;;
13897;SDS011;7019;50.766;4.474;2022-12-01T08:19:29;55.67;;;29.97;;
13897;SDS011;7019;50.766;4.474;2022-12-01T08:21:56;63.23;;;31.37;;
13897;SDS011;7019;50.766;4.474;2022-12-01T08:24:23;58.90;;;31.87;;
13897;SDS011;7019;50.766;4.474;2022-12-01T08:26:50;57.03;;;30.10;;
13897;SDS011;7019;50.766;4.474;2022-12-01T08:29:17;55.00;;;29.03;;
13897;SDS011;7019;50.766;4.474;2022-12-01T08:31:44;62.67;;;30.17;;
13897;SDS011;7019;50.766;4.474;2022-12-01T08:34:12;57.23;;;29.20;;
13897;SDS011;7019;50.766;4.474;2022-12-01T08:36:40;60.23;;;28.70;;
13897;SDS011;7019;50.766;4.474;2022-12-01T08:39:07;55.30;;;28.73;;
13897;SDS011;7019;50.766;4.474;2022-12-01T08:41:34;54.93;;;27.73;;
13897;SDS011;7019;50.766;4.474;2022-12-01T08:44:01;55.40;;;28.60;;
13897;SDS011;7019;50.766;4.474;2022-12-01T08:46:30;57.33;;;27.77;;
13897;SDS011;7019;50.766;4.474;2022-12-01T08:48:58;54.90;;;29.27;;
13897;SDS011;7019;50.766;4.474;2022-12-01T08:51:27;73.03;;;33.00;;
13897;SDS011;7019;50.766;4.474;2022-12-01T08:53:55;96.53;;;35.50;;
13897;SDS011;7019;50.766;4.474;2022-12-01T08:56:23;73.77;;;30.73;;
13897;SDS011;7019;50.766;4.474;2022-12-01T08:58:52;63.87;;;28.70;;
13897;SDS011;7019;50.766;4.474;2022-12-01T09:01:20;66.67;;;30.90;;
13897;SDS011;7019;50.766;4.474;2022-12-01T09:03:47;58.23;;;29.03;;
13897;SDS011;7019;50.766;4.474;2022-12-01T09:06:30;50.63;;;27.13;;
13897;SDS011;7019;50.766;4.474;2022-12-01T09:08:58;52.77;;;26.90;;
13897;SDS011;7019;50.766;4.474;2022-12-01T09:11:26;47.70;;;26.07;;
13897;SDS011;7019;50.766;4.474;2022-12-01T09:13:53;49.90;;;27.93;;
13897;SDS011;7019;50.766;4.474;2022-12-01T09:16:20;47.47;;;25.93;;
13897;SDS011;7019;50.766;4.474;2022-12-01T09:18:47;51.23;;;26.70;;
13897;SDS011;7019;50.766;4.474;2022-12-01T09:21:15;50.13;;;26.73;;
13897;SDS011;7019;50.766;4.474;2022-12-01T09:23:45;52.40;;;26.40;;
13897;SDS011;7019;50.766;4.474;2022-12-01T09:26:13;51.50;;;26.50;;
13897;SDS011;7019;50.766;4.474;2022-12-01T09:28:43;50.10;;;26.23;;
13897;SDS011;7019;50.766;4.474;2022-12-01T09:31:11;51.00;;;26.13;;
13897;SDS011;7019;50.766;4.474;2022-12-01T09:33:38;46.70;;;25.63;;
13897;SDS011;7019;50.766;4.474;2022-12-01T09:36:06;47.67;;;26.03;;
13897;SDS011;7019;50.766;4.474;2022-12-01T09:38:34;43.53;;;23.97;;
13897;SDS011;7019;50.766;4.474;2022-12-01T09:41:04;43.87;;;25.17;;
13897;SDS011;7019;50.766;4.474;2022-12-01T09:43:39;51.07;;;26.43;;
13897;SDS011;7019;50.766;4.474;2022-12-01T09:46:07;45.60;;;23.80;;
13897;SDS011;7019;50.766;4.474;2022-12-01T09:48:42;43.50;;;24.97;;
13897;SDS011;7019;50.766;4.474;2022-12-01T09:51:12;43.77;;;23.03;;
13897;SDS011;7019;50.766;4.474;2022-12-01T09:53:40;38.77;;;21.93;;
13897;SDS011;7019;50.766;4.474;2022-12-01T09:56:15;41.20;;;22.87;;
13897;SDS011;7019;50.766;4.474;2022-12-01T09:58:46;45.67;;;26.00;;
13897;SDS011;7019;50.766;4.474;2022-12-01T10:01:16;47.37;;;24.90;;
13897;SDS011;7019;50.766;4.474;2022-12-01T10:03:46;44.53;;;23.87;;
13897;SDS011;7019;50.766;4.474;2022-12-01T10:06:19;42.30;;;23.43;;
13897;SDS011;7019;50.766;4.474;2022-12-01T10:08:52;44.80;;;24.03;;
13897;SDS011;7019;50.766;4.474;2022-12-01T10:11:30;45.90;;;23.90;;
13897;SDS011;7019;50.766;4.474;2022-12-01T10:13:59;42.30;;;23.30;;
13897;SDS011;7019;50.766;4.474;2022-12-01T10:16:29;42.67;;;26.03;;
13897;SDS011;7019;50.766;4.474;2022-12-01T10:19:04;45.17;;;25.07;;
13897;SDS011;7019;50.766;4.474;2022-12-01T10:21:51;37.07;;;23.03;;
13897;SDS011;7019;50.766;4.474;2022-12-01T10:24:30;47.57;;;23.87;;
13897;SDS011;7019;50.766;4.474;2022-12-01T10:27:18;44.57;;;23.97;;
13897;SDS011;7019;50.766;4.474;2022-12-01T10:29:59;42.07;;;24.60;;
13897;SDS011;7019;50.766;4.474;2022-12-01T10:32:33;44.90;;;23.50;;
13897;SDS011;7019;50.766;4.474;2022-12-01T10:35:07;42.30;;;22.73;;
13897;SDS011;7019;50.766;4.474;2022-12-01T10:37:35;47.97;;;25.33;;
13897;SDS011;7019;50.766;4.474;2022-12-01T10:40:04;44.43;;;23.70;;
13897;SDS011;7019;50.766;4.474;2022-12-01T10:42:40;44.30;;;24.83;;
13897;SDS011;7019;50.766;4.474;2022-12-01T10:45:12;48.17;;;24.13;;
13897;SDS011;7019;50.766;4.474;2022-12-01T10:50:33;45.97;;;24.77;;
13897;SDS011;7019;50.766;4.474;2022-12-01T10:53:02;43.47;;;22.30;;
13897;SDS011;7019;50.766;4.474;2022-12-01T10:55:34;40.00;;;23.53;;
13897;SDS011;7019;50.766;4.474;2022-12-01T10:58:12;43.67;;;22.90;;
13897;SDS011;7019;50.766;4.474;2022-12-01T11:00:41;35.40;;;22.73;;
13897;SDS011;7019;50.766;4.474;2022-12-01T11:03:20;38.03;;;23.73;;
13897;SDS011;7019;50.766;4.474;2022-12-01T11:05:51;42.77;;;21.90;;
13897;SDS011;7019;50.766;4.474;2022-12-01T11:08:22;37.13;;;22.47;;
13897;SDS011;7019;50.766;4.474;2022-12-01T11:11:01;37.20;;;21.37;;
13897;SDS011;7019;50.766;4.474;2022-12-01T11:13:30;36.47;;;21.83;;
13897;SDS011;7019;50.766;4.474;2022-12-01T11:16:01;36.10;;;22.07;;
13897;SDS011;7019;50.766;4.474;2022-12-01T11:18:31;34.17;;;20.67;;
13897;SDS011;7019;50.766;4.474;2022-12-01T11:21:04;37.43;;;20.47;;
13897;SDS011;7019;50.766;4.474;2022-12-01T11:23:34;31.33;;;21.30;;
13897;SDS011;7019;50.766;4.474;2022-12-01T11:26:10;33.97;;;21.27;;
13897;SDS011;7019;50.766;4.474;2022-12-01T11:28:48;33.90;;;19.60;;
13897;SDS011;7019;50.766;4.474;2022-12-01T11:31:18;35.23;;;20.63;;
13897;SDS011;7019;50.766;4.474;2022-12-01T11:33:47;31.20;;;19.37;;
13897;SDS011;7019;50.766;4.474;2022-12-01T11:36:18;30.50;;;19.47;;
13897;SDS011;7019;50.766;4.474;2022-12-01T11:38:48;28.57;;;18.13;;
13897;SDS011;7019;50.766;4.474;2022-12-01T11:41:23;27.57;;;17.70;;
13897;SDS011;7019;50.766;4.474;2022-12-01T11:43:55;27.47;;;18.07;;
13897;SDS011;7019;50.766;4.474;2022-12-01T11:46:32;25.83;;;17.10;;
13897;SDS011;7019;50.766;4.474;2022-12-01T11:49:02;25.13;;;16.40;;
13897;SDS011;7019;50.766;4.474;2022-12-01T11:51:30;28.80;;;17.80;;
13897;SDS011;7019;50.766;4.474;2022-12-01T11:54:06;29.13;;;17.43;;
13897;SDS011;7019;50.766;4.474;2022-12-01T11:56:39;26.00;;;16.43;;
13897;SDS011;7019;50.766;4.474;2022-12-01T11:59:10;25.07;;;17.60;;
13897;SDS011;7019;50.766;4.474;2022-12-01T12:01:55;28.77;;;17.70;;
13897;SDS011;7019;50.766;4.474;2022-12-01T12:04:36;29.00;;;18.13;;
13897;SDS011;7019;50.766;4.474;2022-12-01T12:07:18;25.17;;;16.80;;
13897;SDS011;7019;50.766;4.474;2022-12-01T12:09:58;28.03;;;18.07;;
13897;SDS011;7019;50.766;4.474;2022-12-01T12:12:41;32.80;;;18.53;;
13897;SDS011;7019;50.766;4.474;2022-12-01T12:15:24;26.30;;;16.70;;
13897;SDS011;7019;50.766;4.474;2022-12-01T12:18:06;26.53;;;17.27;;
13897;SDS011;7019;50.766;4.474;2022-12-01T12:20:53;24.40;;;16.17;;
13897;SDS011;7019;50.766;4.474;2022-12-01T12:23:36;23.03;;;15.13;;
13897;SDS011;7019;50.766;4.474;2022-12-01T12:26:29;27.97;;;16.90;;
13897;SDS011;7019;50.766;4.474;2022-12-01T12:29:06;35.27;;;16.97;;
13897;SDS011;7019;50.766;4.474;2022-12-01T12:31:49;48.40;;;20.87;;
13897;SDS011;7019;50.766;4.474;2022-12-01T12:34:30;35.70;;;18.10;;
13897;SDS011;7019;50.766;4.474;2022-12-01T12:37:14;69.80;;;22.53;;
13897;SDS011;7019;50.766;4.474;2022-12-01T12:39:52;52.57;;;20.67;;
13897;SDS011;7019;50.766;4.474;2022-12-01T12:42:36;42.40;;;17.83;;
13897;SDS011;7019;50.766;4.474;2022-12-01T12:45:15;30.17;;;16.47;;
13897;SDS011;7019;50.766;4.474;2022-12-01T12:47:56;54.60;;;20.33;;
13897;SDS011;7019;50.766;4.474;2022-12-01T12:50:38;63.73;;;23.13;;
13897;SDS011;7019;50.766;4.474;2022-12-01T12:53:12;62.20;;;22.87;;
13897;SDS011;7019;50.766;4.474;2022-12-01T12:55:45;87.87;;;24.20;;
13897;SDS011;7019;50.766;4.474;2022-12-01T12:58:17;48.17;;;18.93;;
13897;SDS011;7019;50.766;4.474;2022-12-01T13:00:49;34.23;;;18.43;;
13897;SDS011;7019;50.766;4.474;2022-12-01T13:03:24;29.57;;;15.50;;
13897;SDS011;7019;50.766;4.474;2022-12-01T13:05:58;31.93;;;16.67;;
13897;SDS011;7019;50.766;4.474;2022-12-01T13:08:28;25.27;;;16.17;;
13897;SDS011;7019;50.766;4.474;2022-12-01T13:11:01;26.67;;;15.90;;
13897;SDS011;7019;50.766;4.474;2022-12-01T13:13:34;27.23;;;16.83;;
13897;SDS011;7019;50.766;4.474;2022-12-01T13:16:10;25.63;;;16.23;;
13897;SDS011;7019;50.766;4.474;2022-12-01T13:18:43;25.23;;;17.10;;
13897;SDS011;7019;50.766;4.474;2022-12-01T13:21:15;25.57;;;16.67;;
13897;SDS011;7019;50.766;4.474;2022-12-01T13:23:44;28.23;;;17.93;;
13897;SDS011;7019;50.766;4.474;2022-12-01T13:26:13;33.80;;;19.73;;
13897;SDS011;7019;50.766;4.474;2022-12-01T13:28:43;30.67;;;18.37;;
13897;SDS011;7019;50.766;4.474;2022-12-01T13:31:18;32.00;;;20.00;;
13897;SDS011;7019;50.766;4.474;2022-12-01T13:33:54;33.03;;;19.70;;
13897;SDS011;7019;50.766;4.474;2022-12-01T13:36:24;33.90;;;19.70;;
13897;SDS011;7019;50.766;4.474;2022-12-01T13:38:54;37.43;;;20.77;;
13897;SDS011;7019;50.766;4.474;2022-12-01T13:41:25;33.50;;;20.67;;
13897;SDS011;7019;50.766;4.474;2022-12-01T13:43:58;37.27;;;21.87;;
13897;SDS011;7019;50.766;4.474;2022-12-01T13:46:32;34.53;;;21.33;;
13897;SDS011;7019;50.766;4.474;2022-12-01T13:49:28;34.10;;;21.60;;
13897;SDS011;7019;50.766;4.474;2022-12-01T13:52:17;36.27;;;22.10;;
13897;SDS011;7019;50.766;4.474;2022-12-01T13:54:59;36.70;;;22.57;;
13897;SDS011;7019;50.766;4.474;2022-12-01T13:57:48;40.20;;;22.93;;
13897;SDS011;7019;50.766;4.474;2022-12-01T14:00:38;38.70;;;23.20;;
13897;SDS011;7019;50.766;4.474;2022-12-01T14:06:08;39.87;;;23.80;;
13897;SDS011;7019;50.766;4.474;2022-12-01T14:08:46;39.17;;;24.13;;
13897;SDS011;7019;50.766;4.474;2022-12-01T14:11:19;44.37;;;23.13;;
13897;SDS011;7019;50.766;4.474;2022-12-01T14:13:49;47.57;;;24.53;;
13897;SDS011;7019;50.766;4.474;2022-12-01T14:16:19;38.07;;;21.73;;
13897;SDS011;7019;50.766;4.474;2022-12-01T14:18:51;38.37;;;21.63;;
13897;SDS011;7019;50.766;4.474;2022-12-01T14:24:18;31.73;;;20.30;;
13897;SDS011;7019;50.766;4.474;2022-12-01T14:26:48;36.17;;;20.67;;
13897;SDS011;7019;50.766;4.474;2022-12-01T14:29:26;36.90;;;20.97;;
13897;SDS011;7019;50.766;4.474;2022-12-01T14:32:03;34.00;;;20.30;;
13897;SDS011;7019;50.766;4.474;2022-12-01T14:34:45;35.97;;;21.27;;
13897;SDS011;7019;50.766;4.474;2022-12-01T14:37:20;35.60;;;20.93;;
13897;SDS011;7019;50.766;4.474;2022-12-01T14:39:51;35.40;;;20.63;;
13897;SDS011;7019;50.766;4.474;2022-12-01T14:42:25;35.33;;;20.60;;
13897;SDS011;7019;50.766;4.474;2022-12-01T14:45:16;33.87;;;21.00;;
13897;SDS011;7019;50.766;4.474;2022-12-01T14:47:50;31.60;;;20.40;;
13897;SDS011;7019;50.766;4.474;2022-12-01T14:50:22;36.23;;;19.73;;
13897;SDS011;7019;50.766;4.474;2022-12-01T14:52:56;34.27;;;20.97;;
13897;SDS011;7019;50.766;4.474;2022-12-01T14:55:29;34.97;;;19.77;;
13897;SDS011;7019;50.766;4.474;2022-12-01T14:58:01;28.67;;;19.80;;
13897;SDS011;7019;50.766;4.474;2022-12-01T15:00:32;32.47;;;19.73;;
13897;SDS011;7019;50.766;4.474;2022-12-01T15:03:03;31.67;;;18.93;;
13897;SDS011;7019;50.766;4.474;2022-12-01T15:05:36;31.70;;;19.73;;